»·PEaware :: N8295H KFAT-KMRY

N8295H :: KFAT-KMRY

FLIGHT INFORMATION

Flight Status: Arrived
Operator: Privately registered:
United States
More flights under this callsign
Pilot: Andrew R. (27652)
Aircraft: PIPER PA-28 CHEROKEE ARCHER
(P28A)
More flights by this aircraft type
Origin: KFAT Fresno Yosemite Intl
United States
Destination: KMRY Monterey Peninsula
United States
More flights between these airports :: More routes between these airports
Route: BLEAR PXN RANCK SNS
File this flight plan on PilotEdge
Remarks: ZULU Weather - NO VISUAL APR
Altitude:
(Current/Filed)
8,000ft
Speed:
(Current/Filed)
105kts
Departed: 29-Apr-21 05:23 PM
Arrived: 29-Apr-21 06:30 PM
Distance/Time
Traveled:
103nm/1:07
Distance/Time
To Go:
Arrived

Flight Plot

Page will automatically refresh every two minutes.

Flight plan parsing failed; only flown route is shown


Map Options




Map Legend


Flown Route
Filed Route
Departure Airport
Arrival Airport
Navaid (VOR, NDB)
Fix

Horizontal Profiles

Position Reports

Time Latitude Longitude Heading Altitude Ground
Speed
29-Apr-21 17:01 36.773446 -119.721021 306 328ft 0kts
29-Apr-21 17:02 36.773446 -119.721021 306 328ft 0kts
29-Apr-21 17:03 36.773446 -119.721021 306 328ft 0kts
29-Apr-21 17:04 36.773446 -119.721021 306 328ft 0kts
29-Apr-21 17:05 36.773446 -119.721021 306 328ft 0kts
29-Apr-21 17:06 36.773446 -119.721021 306 328ft 0kts
29-Apr-21 17:07 36.773446 -119.721021 306 328ft 0kts
29-Apr-21 17:08 36.773590 -119.721169 326 328ft 4kts
29-Apr-21 17:09 36.774736 -119.720821 36 328ft 5kts
29-Apr-21 17:10 36.773348 -119.717922 125 328ft 12kts
29-Apr-21 17:11 36.771081 -119.713954 125 327ft 16kts
29-Apr-21 17:12 36.769621 -119.710577 34 328ft 6kts
29-Apr-21 17:13 36.769693 -119.710560 359 328ft 0kts
29-Apr-21 17:14 36.769693 -119.710560 359 328ft 0kts
29-Apr-21 17:15 36.769693 -119.710560 359 328ft 0kts
29-Apr-21 17:16 36.769693 -119.710560 359 328ft 0kts
29-Apr-21 17:17 36.769693 -119.710560 359 328ft 0kts
29-Apr-21 17:18 36.769693 -119.710560 359 328ft 0kts
29-Apr-21 17:19 36.769693 -119.710560 359 328ft 0kts
29-Apr-21 17:20 36.769701 -119.710560 359 328ft 1kts
29-Apr-21 17:21 36.770631 -119.710664 305 328ft 18kts
29-Apr-21 17:22 36.781380 -119.729800 302 785ft 74kts
29-Apr-21 17:23 36.793441 -119.751085 301 1470ft 75kts
29-Apr-21 17:24 36.804916 -119.773311 302 2156ft 76kts
29-Apr-21 17:25 36.817688 -119.795242 286 2790ft 79kts
29-Apr-21 17:26 36.818304 -119.823128 270 3412ft 80kts
29-Apr-21 17:27 36.818498 -119.851716 268 3980ft 83kts
29-Apr-21 17:28 36.817802 -119.880520 265 4555ft 82kts
29-Apr-21 17:29 36.817556 -119.909422 266 5086ft 83kts
29-Apr-21 17:30 36.817534 -119.938584 276 5589ft 84kts
29-Apr-21 17:31 36.818843 -119.967947 268 6079ft 85kts
29-Apr-21 17:32 36.819237 -119.997589 268 6554ft 84kts
29-Apr-21 17:33 36.818995 -120.026665 262 7037ft 81kts
29-Apr-21 17:34 36.818948 -120.055567 268 7472ft 82kts
29-Apr-21 17:35 36.819344 -120.083298 268 7903ft 80kts
29-Apr-21 17:36 36.819991 -120.114856 271 8021ft 104kts
29-Apr-21 17:37 36.820513 -120.150655 267 8012ft 101kts
29-Apr-21 17:38 36.818193 -120.185658 253 8032ft 101kts
29-Apr-21 17:39 36.812418 -120.220518 259 8018ft 103kts
29-Apr-21 17:40 36.806476 -120.255656 258 7991ft 102kts
29-Apr-21 17:41 36.800763 -120.290253 257 7966ft 99kts
29-Apr-21 17:42 36.795028 -120.324038 259 7985ft 98kts
29-Apr-21 17:43 36.789458 -120.357317 258 8010ft 99kts
29-Apr-21 17:44 36.783821 -120.390770 256 8040ft 98kts
29-Apr-21 17:45 36.777985 -120.424542 257 7999ft 103kts
29-Apr-21 17:46 36.771906 -120.459094 258 7984ft 101kts
29-Apr-21 17:47 36.766180 -120.493286 258 7988ft 100kts
29-Apr-21 17:48 36.760375 -120.527615 258 7966ft 101kts
29-Apr-21 17:49 36.754506 -120.561925 257 7961ft 100kts
29-Apr-21 17:50 36.748708 -120.595496 257 7980ft 100kts
29-Apr-21 17:51 36.742794 -120.629366 257 7995ft 99kts
29-Apr-21 17:52 36.736844 -120.663067 257 8006ft 99kts
29-Apr-21 17:53 36.730816 -120.696830 256 8015ft 99kts
29-Apr-21 17:54 36.724718 -120.730615 256 8025ft 99kts
29-Apr-21 17:55 36.718578 -120.764259 256 8033ft 99kts
29-Apr-21 17:56 36.709548 -120.796809 243 8041ft 99kts
29-Apr-21 17:57 36.697296 -120.827960 243 8048ft 99kts
29-Apr-21 17:58 36.685201 -120.859022 244 8044ft 101kts
29-Apr-21 17:59 36.673080 -120.890792 244 8021ft 101kts
29-Apr-21 18:00 36.661674 -120.922800 249 8007ft 101kts
29-Apr-21 18:01 36.653358 -120.956357 253 7994ft 101kts
29-Apr-21 18:02 36.645395 -120.989890 253 7983ft 101kts
29-Apr-21 18:03 36.637352 -121.023469 253 7987ft 99kts
29-Apr-21 18:04 36.629317 -121.056769 252 7975ft 100kts
29-Apr-21 18:05 36.621203 -121.090092 252 7997ft 98kts
29-Apr-21 18:06 36.613253 -121.122575 252 8028ft 98kts
29-Apr-21 18:07 36.605079 -121.155627 252 8026ft 100kts
29-Apr-21 18:08 36.596784 -121.188729 252 7810ft 102kts
29-Apr-21 18:09 36.587973 -121.222933 252 7311ft 103kts
29-Apr-21 18:10 36.579069 -121.257162 252 6818ft 103kts
29-Apr-21 18:11 36.570169 -121.291124 252 6351ft 103kts
29-Apr-21 18:12 36.561241 -121.324946 252 5903ft 102kts
29-Apr-21 18:13 36.552321 -121.358460 252 5438ft 101kts
29-Apr-21 18:14 36.543420 -121.391639 252 5029ft 98kts
29-Apr-21 18:15 36.534841 -121.423779 251 5012ft 98kts
29-Apr-21 18:16 36.526241 -121.455987 251 5023ft 98kts
29-Apr-21 18:17 36.517588 -121.488115 251 5018ft 98kts
29-Apr-21 18:18 36.509187 -121.520407 253 5011ft 98kts
29-Apr-21 18:19 36.501482 -121.552965 253 5005ft 98kts
29-Apr-21 18:20 36.499898 -121.586046 267 5035ft 96kts
29-Apr-21 18:21 36.508433 -121.618218 292 4721ft 105kts
29-Apr-21 18:22 36.521154 -121.650787 292 3986ft 103kts
29-Apr-21 18:23 36.531289 -121.681897 293 3354ft 98kts
29-Apr-21 18:24 36.541052 -121.713132 297 2805ft 97kts
29-Apr-21 18:25 36.552108 -121.743795 291 2199ft 97kts
29-Apr-21 18:26 36.560169 -121.767444 295 1757ft 97kts
29-Apr-21 18:27 36.571582 -121.798776 293 997ft 77kts
29-Apr-21 18:28 36.579798 -121.823247 292 544ft 77kts
29-Apr-21 18:29 36.585621 -121.840968 234 229ft 13kts
29-Apr-21 18:30 36.585519 -121.842913 291 219ft 7kts
29-Apr-21 18:31 36.587209 -121.847518 292 187ft 16kts
29-Apr-21 18:32 36.587991 -121.851201 26 176ft 0kts
29-Apr-21 18:33 36.587991 -121.851201 26 176ft 0kts

Navigation Log

Ident Type
Flight plan parsing failed, navigation log unavailable